sensor_id;sensor_type;location;lat;lon;timestamp;pressure;altitude;pressure_sealevel;temperature;humidity
31538;BME280;18147;51.952;6.146;2023-01-24T00:00:31;103786.59;;;3.27;100.00
31538;BME280;18147;51.952;6.146;2023-01-24T00:02:57;103792.69;;;3.23;100.00
31538;BME280;18147;51.952;6.146;2023-01-24T00:05:22;103778.66;;;3.26;100.00
31538;BME280;18147;51.952;6.146;2023-01-24T00:07:48;103776.84;;;3.22;100.00
31538;BME280;18147;51.952;6.146;2023-01-24T00:10:13;103781.81;;;3.02;100.00
31538;BME280;18147;51.952;6.146;2023-01-24T00:12:39;103785.50;;;3.13;100.00
31538;BME280;18147;51.952;6.146;2023-01-24T00:15:05;103778.41;;;3.10;100.00
31538;BME280;18147;51.952;6.146;2023-01-24T00:17:31;103783.97;;;3.29;100.00
31538;BME280;18147;51.952;6.146;2023-01-24T00:19:56;103772.53;;;3.28;100.00
31538;BME280;18147;51.952;6.146;2023-01-24T00:22:22;103777.81;;;3.28;100.00
31538;BME280;18147;51.952;6.146;2023-01-24T00:24:47;103765.66;;;3.41;100.00
31538;BME280;18147;51.952;6.146;2023-01-24T00:27:14;103769.97;;;3.33;100.00
31538;BME280;18147;51.952;6.146;2023-01-24T00:29:40;103760.97;;;3.19;100.00
31538;BME280;18147;51.952;6.146;2023-01-24T00:32:06;103755.75;;;3.22;100.00
31538;BME280;18147;51.952;6.146;2023-01-24T00:34:31;103757.59;;;3.27;100.00
31538;BME280;18147;51.952;6.146;2023-01-24T00:36:57;103762.09;;;3.36;100.00
31538;BME280;18147;51.952;6.146;2023-01-24T00:39:23;103759.31;;;3.25;100.00
31538;BME280;18147;51.952;6.146;2023-01-24T00:41:48;103759.44;;;3.33;100.00
31538;BME280;18147;51.952;6.146;2023-01-24T00:44:14;103760.38;;;3.40;100.00
31538;BME280;18147;51.952;6.146;2023-01-24T00:46:39;103754.81;;;3.17;100.00
31538;BME280;18147;51.952;6.146;2023-01-24T00:49:06;103757.69;;;3.35;100.00
31538;BME280;18147;51.952;6.146;2023-01-24T00:51:31;103751.50;;;3.31;100.00
31538;BME280;18147;51.952;6.146;2023-01-24T00:53:57;103754.63;;;3.06;100.00
31538;BME280;18147;51.952;6.146;2023-01-24T00:56:22;103748.59;;;3.15;100.00
31538;BME280;18147;51.952;6.146;2023-01-24T00:58:47;103748.59;;;3.15;100.00
31538;BME280;18147;51.952;6.146;2023-01-24T01:01:13;103751.31;;;3.18;100.00
31538;BME280;18147;51.952;6.146;2023-01-24T01:03:38;103745.38;;;3.34;100.00
31538;BME280;18147;51.952;6.146;2023-01-24T01:06:07;103736.38;;;3.18;100.00
31538;BME280;18147;51.952;6.146;2023-01-24T01:08:34;103749.69;;;3.27;100.00
31538;BME280;18147;51.952;6.146;2023-01-24T01:10:59;103741.91;;;3.40;100.00
31538;BME280;18147;51.952;6.146;2023-01-24T01:13:26;103750.72;;;3.38;100.00
31538;BME280;18147;51.952;6.146;2023-01-24T01:16:00;103746.25;;;3.36;100.00
31538;BME280;18147;51.952;6.146;2023-01-24T01:18:25;103743.53;;;3.27;100.00
31538;BME280;18147;51.952;6.146;2023-01-24T01:20:50;103749.41;;;3.10;100.00
31538;BME280;18147;51.952;6.146;2023-01-24T01:23:16;103754.03;;;3.25;100.00
31538;BME280;18147;51.952;6.146;2023-01-24T01:25:41;103756.56;;;3.18;100.00
31538;BME280;18147;51.952;6.146;2023-01-24T01:28:07;103760.75;;;3.02;100.00
31538;BME280;18147;51.952;6.146;2023-01-24T01:30:32;103749.63;;;3.24;100.00
31538;BME280;18147;51.952;6.146;2023-01-24T01:32:58;103750.28;;;3.09;100.00
31538;BME280;18147;51.952;6.146;2023-01-24T01:35:23;103758.34;;;3.17;100.00
31538;BME280;18147;51.952;6.146;2023-01-24T01:37:49;103761.09;;;3.26;100.00
31538;BME280;18147;51.952;6.146;2023-01-24T01:40:16;103762.09;;;3.36;100.00
31538;BME280;18147;51.952;6.146;2023-01-24T01:42:54;103756.53;;;3.16;100.00
31538;BME280;18147;51.952;6.146;2023-01-24T01:45:42;103756.22;;;2.93;100.00
31538;BME280;18147;51.952;6.146;2023-01-24T01:48:19;103752.84;;;3.03;100.00
31538;BME280;18147;51.952;6.146;2023-01-24T01:50:51;103760.81;;;3.08;100.00
31538;BME280;18147;51.952;6.146;2023-01-24T01:53:20;103764.28;;;3.05;100.00
31538;BME280;18147;51.952;6.146;2023-01-24T01:55:50;103767.06;;;3.13;100.00
31538;BME280;18147;51.952;6.146;2023-01-24T01:58:19;103762.44;;;2.98;100.00
31538;BME280;18147;51.952;6.146;2023-01-24T02:00:47;103766.59;;;2.84;100.00
31538;BME280;18147;51.952;6.146;2023-01-24T02:03:18;103766.75;;;2.95;100.00
31538;BME280;18147;51.952;6.146;2023-01-24T02:06:05;103759.84;;;3.01;100.00
31538;BME280;18147;51.952;6.146;2023-01-24T02:08:31;103761.69;;;3.07;100.00
31538;BME280;18147;51.952;6.146;2023-01-24T02:10:59;103752.19;;;3.18;100.00
31538;BME280;18147;51.952;6.146;2023-01-24T02:13:44;103754.63;;;3.04;100.00
31538;BME280;18147;51.952;6.146;2023-01-24T02:16:12;103752.75;;;2.97;100.00
31538;BME280;18147;51.952;6.146;2023-01-24T02:18:40;103743.84;;;2.91;100.00
31538;BME280;18147;51.952;6.146;2023-01-24T02:21:09;103749.34;;;3.06;100.00
31538;BME280;18147;51.952;6.146;2023-01-24T02:23:45;103753.50;;;2.90;100.00
31538;BME280;18147;51.952;6.146;2023-01-24T02:26:22;103748.53;;;3.08;100.00
31538;BME280;18147;51.952;6.146;2023-01-24T02:31:19;103757.19;;;3.00;100.00
31538;BME280;18147;51.952;6.146;2023-01-24T02:33:44;103755.31;;;2.93;100.00
31538;BME280;18147;51.952;6.146;2023-01-24T02:36:19;103747.44;;;2.94;100.00
31538;BME280;18147;51.952;6.146;2023-01-24T02:38:50;103745.72;;;2.96;100.00
31538;BME280;18147;51.952;6.146;2023-01-24T02:41:22;103742.09;;;2.91;100.00
31538;BME280;18147;51.952;6.146;2023-01-24T02:43:51;103744.78;;;2.94;100.00
31538;BME280;18147;51.952;6.146;2023-01-24T02:46:17;103748.47;;;3.05;100.00
31538;BME280;18147;51.952;6.146;2023-01-24T02:48:43;103749.03;;;2.84;100.00
31538;BME280;18147;51.952;6.146;2023-01-24T02:51:08;103743.69;;;2.80;100.00
31538;BME280;18147;51.952;6.146;2023-01-24T02:53:52;103747.09;;;2.71;100.00
31538;BME280;18147;51.952;6.146;2023-01-24T02:56:18;103743.53;;;2.71;100.00
31538;BME280;18147;51.952;6.146;2023-01-24T02:59:02;103750.53;;;2.69;100.00
31538;BME280;18147;51.952;6.146;2023-01-24T03:01:30;103745.03;;;2.55;100.00
31538;BME280;18147;51.952;6.146;2023-01-24T03:03:57;103745.09;;;2.58;100.00
31538;BME280;18147;51.952;6.146;2023-01-24T03:06:23;103751.19;;;2.54;100.00
31538;BME280;18147;51.952;6.146;2023-01-24T03:08:49;103737.44;;;2.72;100.00
31538;BME280;18147;51.952;6.146;2023-01-24T03:11:23;103748.63;;;2.60;100.00
31538;BME280;18147;51.952;6.146;2023-01-24T03:13:49;103738.88;;;2.53;100.00
31538;BME280;18147;51.952;6.146;2023-01-24T03:16:34;103741.28;;;2.41;100.00
31538;BME280;18147;51.952;6.146;2023-01-24T03:19:22;103736.19;;;2.50;100.00
31538;BME280;18147;51.952;6.146;2023-01-24T03:22:06;103741.44;;;2.50;100.00
31538;BME280;18147;51.952;6.146;2023-01-24T03:24:50;103730.25;;;2.62;100.00
31538;BME280;18147;51.952;6.146;2023-01-24T03:27:34;103737.13;;;2.53;100.00
31538;BME280;18147;51.952;6.146;2023-01-24T03:30:24;103737.31;;;2.66;100.00
31538;BME280;18147;51.952;6.146;2023-01-24T03:33:08;103746.69;;;2.48;100.00
31538;BME280;18147;51.952;6.146;2023-01-24T03:35:52;103749.44;;;2.54;100.00
31538;BME280;18147;51.952;6.146;2023-01-24T03:38:24;103742.41;;;2.55;100.00
31538;BME280;18147;51.952;6.146;2023-01-24T03:41:09;103737.28;;;2.63;100.00
31538;BME280;18147;51.952;6.146;2023-01-24T03:43:36;103731.00;;;2.56;100.00
31538;BME280;18147;51.952;6.146;2023-01-24T03:46:02;103735.50;;;2.62;100.00
31538;BME280;18147;51.952;6.146;2023-01-24T03:48:44;103733.72;;;2.60;100.00
31538;BME280;18147;51.952;6.146;2023-01-24T03:51:10;103734.66;;;2.63;100.00
31538;BME280;18147;51.952;6.146;2023-01-24T03:53:54;103738.00;;;2.54;100.00
31538;BME280;18147;51.952;6.146;2023-01-24T03:56:24;103741.75;;;2.68;100.00
31538;BME280;18147;51.952;6.146;2023-01-24T03:58:55;103739.19;;;2.73;100.00
31538;BME280;18147;51.952;6.146;2023-01-24T04:01:23;103746.69;;;2.47;100.00
31538;BME280;18147;51.952;6.146;2023-01-24T04:04:03;103740.78;;;2.63;100.00
31538;BME280;18147;51.952;6.146;2023-01-24T04:06:28;103737.28;;;2.64;100.00
31538;BME280;18147;51.952;6.146;2023-01-24T04:08:56;103737.69;;;2.89;100.00
31538;BME280;18147;51.952;6.146;2023-01-24T04:11:32;103743.59;;;2.72;100.00
31538;BME280;18147;51.952;6.146;2023-01-24T04:14:08;103747.25;;;2.82;100.00
31538;BME280;18147;51.952;6.146;2023-01-24T04:16:37;103750.44;;;2.63;100.00
31538;BME280;18147;51.952;6.146;2023-01-24T04:19:10;103744.63;;;2.82;100.00
31538;BME280;18147;51.952;6.146;2023-01-24T04:21:35;103749.69;;;2.70;100.00
31538;BME280;18147;51.952;6.146;2023-01-24T04:24:01;103750.53;;;2.67;100.00
31538;BME280;18147;51.952;6.146;2023-01-24T04:26:27;103753.31;;;2.76;100.00
31538;BME280;18147;51.952;6.146;2023-01-24T04:28:54;103762.50;;;2.48;100.00
31538;BME280;18147;51.952;6.146;2023-01-24T04:31:19;103760.03;;;2.57;100.00
31538;BME280;18147;51.952;6.146;2023-01-24T04:34:08;103754.59;;;2.48;100.00
31538;BME280;18147;51.952;6.146;2023-01-24T04:36:36;103765.81;;;2.38;100.00
31538;BME280;18147;51.952;6.146;2023-01-24T04:39:02;103761.31;;;2.31;100.00
31538;BME280;18147;51.952;6.146;2023-01-24T04:41:48;103761.19;;;2.25;100.00
31538;BME280;18147;51.952;6.146;2023-01-24T04:44:14;103767.31;;;2.22;100.00
31538;BME280;18147;51.952;6.146;2023-01-24T04:46:39;103757.66;;;2.24;100.00
31538;BME280;18147;51.952;6.146;2023-01-24T04:49:05;103751.81;;;2.41;100.00
31538;BME280;18147;51.952;6.146;2023-01-24T04:51:36;103761.25;;;2.26;100.00
31538;BME280;18147;51.952;6.146;2023-01-24T04:54:06;103758.47;;;2.20;100.00
31538;BME280;18147;51.952;6.146;2023-01-24T04:56:33;103755.75;;;2.16;100.00
31538;BME280;18147;51.952;6.146;2023-01-24T04:58:59;103760.03;;;2.11;100.00
31538;BME280;18147;51.952;6.146;2023-01-24T05:01:24;103750.78;;;2.31;100.00
31538;BME280;18147;51.952;6.146;2023-01-24T05:03:59;103747.31;;;2.33;100.00
31538;BME280;18147;51.952;6.146;2023-01-24T05:06:26;103758.88;;;2.42;100.00
31538;BME280;18147;51.952;6.146;2023-01-24T05:08:53;103751.69;;;2.33;100.00
31538;BME280;18147;51.952;6.146;2023-01-24T05:11:21;103754.34;;;2.34;100.00
31538;BME280;18147;51.952;6.146;2023-01-24T05:13:49;103749.06;;;2.34;100.00
31538;BME280;18147;51.952;6.146;2023-01-24T05:16:17;103752.41;;;2.24;100.00
31538;BME280;18147;51.952;6.146;2023-01-24T05:18:42;103764.50;;;2.15;100.00
31538;BME280;18147;51.952;6.146;2023-01-24T05:21:11;103761.88;;;2.15;100.00
31538;BME280;18147;51.952;6.146;2023-01-24T05:23:37;103765.25;;;2.06;100.00
31538;BME280;18147;51.952;6.146;2023-01-24T05:26:04;103772.09;;;1.98;100.00
31538;BME280;18147;51.952;6.146;2023-01-24T05:28:30;103775.03;;;2.13;100.00
31538;BME280;18147;51.952;6.146;2023-01-24T05:31:04;103771.59;;;2.17;100.00
31538;BME280;18147;51.952;6.146;2023-01-24T05:33:31;103764.66;;;2.22;100.00
31538;BME280;18147;51.952;6.146;2023-01-24T05:36:06;103772.75;;;2.33;100.00
31538;BME280;18147;51.952;6.146;2023-01-24T05:38:34;103774.13;;;2.13;100.00
31538;BME280;18147;51.952;6.146;2023-01-24T05:41:00;103778.75;;;2.26;100.00
31538;BME280;18147;51.952;6.146;2023-01-24T05:43:27;103780.31;;;2.15;100.00
31538;BME280;18147;51.952;6.146;2023-01-24T05:46:00;103778.59;;;2.17;100.00
31538;BME280;18147;51.952;6.146;2023-01-24T05:48:27;103787.41;;;2.19;100.00
31538;BME280;18147;51.952;6.146;2023-01-24T05:51:19;103787.44;;;2.20;100.00
31538;BME280;18147;51.952;6.146;2023-01-24T05:53:46;103795.97;;;2.08;100.00
31538;BME280;18147;51.952;6.146;2023-01-24T05:56:17;103786.44;;;2.14;100.00
31538;BME280;18147;51.952;6.146;2023-01-24T05:58:45;103800.38;;;2.08;100.00
31538;BME280;18147;51.952;6.146;2023-01-24T06:01:16;103790.59;;;2.02;100.00
31538;BME280;18147;51.952;6.146;2023-01-24T06:03:45;103797.53;;;1.99;100.00
31538;BME280;18147;51.952;6.146;2023-01-24T06:06:12;103797.50;;;1.96;100.00
31538;BME280;18147;51.952;6.146;2023-01-24T06:08:39;103799.06;;;1.86;100.00
31538;BME280;18147;51.952;6.146;2023-01-24T06:11:10;103794.00;;;1.97;100.00
31538;BME280;18147;51.952;6.146;2023-01-24T06:13:38;103800.25;;;2.02;100.00
31538;BME280;18147;51.952;6.146;2023-01-24T06:16:10;103797.81;;;2.13;100.00
31538;BME280;18147;51.952;6.146;2023-01-24T06:18:36;103800.75;;;2.28;100.00
31538;BME280;18147;51.952;6.146;2023-01-24T06:23:35;103804.09;;;2.21;100.00
31538;BME280;18147;51.952;6.146;2023-01-24T06:26:03;103803.22;;;2.20;100.00
31538;BME280;18147;51.952;6.146;2023-01-24T06:28:29;103802.25;;;2.15;100.00
31538;BME280;18147;51.952;6.146;2023-01-24T06:33:37;103799.50;;;2.09;100.00
31538;BME280;18147;51.952;6.146;2023-01-24T06:38:50;103801.34;;;2.13;100.00
31538;BME280;18147;51.952;6.146;2023-01-24T06:41:16;103799.91;;;2.30;100.00
31538;BME280;18147;51.952;6.146;2023-01-24T06:43:43;103808.72;;;2.32;100.00
31538;BME280;18147;51.952;6.146;2023-01-24T06:46:10;103815.19;;;2.03;100.00
31538;BME280;18147;51.952;6.146;2023-01-24T06:48:36;103805.66;;;2.10;100.00
31538;BME280;18147;51.952;6.146;2023-01-24T06:51:02;103814.28;;;2.01;100.00
31538;BME280;18147;51.952;6.146;2023-01-24T06:53:27;103816.06;;;2.03;100.00
31538;BME280;18147;51.952;6.146;2023-01-24T06:55:52;103810.78;;;2.03;100.00
31538;BME280;18147;51.952;6.146;2023-01-24T06:58:18;103808.28;;;2.10;100.00
31538;BME280;18147;51.952;6.146;2023-01-24T07:00:43;103815.38;;;2.14;100.00
31538;BME280;18147;51.952;6.146;2023-01-24T07:03:09;103823.94;;;2.02;100.00
31538;BME280;18147;51.952;6.146;2023-01-24T07:05:36;103823.94;;;2.03;100.00
31538;BME280;18147;51.952;6.146;2023-01-24T07:08:02;103823.28;;;2.14;100.00
31538;BME280;18147;51.952;6.146;2023-01-24T07:10:28;103822.47;;;2.16;100.00
31538;BME280;18147;51.952;6.146;2023-01-24T07:12:54;103828.25;;;2.00;100.00
31538;BME280;18147;51.952;6.146;2023-01-24T07:15:19;103829.97;;;1.96;100.00
31538;BME280;18147;51.952;6.146;2023-01-24T07:17:45;103827.63;;;2.12;100.00
31538;BME280;18147;51.952;6.146;2023-01-24T07:20:12;103825.50;;;1.92;100.00
31538;BME280;18147;51.952;6.146;2023-01-24T07:22:40;103834.94;;;1.84;100.00
31538;BME280;18147;51.952;6.146;2023-01-24T07:25:22;103844.00;;;1.97;100.00
31538;BME280;18147;51.952;6.146;2023-01-24T07:27:48;103840.53;;;1.99;100.00
31538;BME280;18147;51.952;6.146;2023-01-24T07:30:14;103840.91;;;2.16;100.00
31538;BME280;18147;51.952;6.146;2023-01-24T07:32:40;103848.72;;;2.13;100.00
31538;BME280;18147;51.952;6.146;2023-01-24T07:35:06;103847.25;;;2.27;100.00
31538;BME280;18147;51.952;6.146;2023-01-24T07:37:32;103847.28;;;2.29;100.00
31538;BME280;18147;51.952;6.146;2023-01-24T07:39:58;103842.13;;;2.35;100.00
31538;BME280;18147;51.952;6.146;2023-01-24T07:42:26;103839.31;;;2.26;100.00
31538;BME280;18147;51.952;6.146;2023-01-24T07:44:52;103855.38;;;2.40;100.00
31538;BME280;18147;51.952;6.146;2023-01-24T07:47:19;103846.78;;;2.50;100.00
31538;BME280;18147;51.952;6.146;2023-01-24T07:49:45;103846.47;;;2.33;100.00
31538;BME280;18147;51.952;6.146;2023-01-24T07:52:10;103851.59;;;2.25;100.00
31538;BME280;18147;51.952;6.146;2023-01-24T07:54:36;103856.81;;;2.24;100.00
31538;BME280;18147;51.952;6.146;2023-01-24T07:57:01;103858.13;;;2.46;100.00
31538;BME280;18147;51.952;6.146;2023-01-24T07:59:26;103856.63;;;2.15;100.00
31538;BME280;18147;51.952;6.146;2023-01-24T08:01:52;103853.38;;;2.26;100.00
31538;BME280;18147;51.952;6.146;2023-01-24T08:04:17;103867.94;;;2.11;100.00
31538;BME280;18147;51.952;6.146;2023-01-24T08:06:43;103869.78;;;2.13;100.00
31538;BME280;18147;51.952;6.146;2023-01-24T08:09:28;103862.63;;;2.06;100.00
31538;BME280;18147;51.952;6.146;2023-01-24T08:11:54;103868.22;;;2.23;100.00
31538;BME280;18147;51.952;6.146;2023-01-24T08:14:20;103862.97;;;2.24;100.00
31538;BME280;18147;51.952;6.146;2023-01-24T08:16:47;103870.66;;;2.14;100.00
31538;BME280;18147;51.952;6.146;2023-01-24T08:19:13;103862.94;;;2.21;100.00
31538;BME280;18147;51.952;6.146;2023-01-24T08:21:38;103868.44;;;2.35;100.00
31538;BME280;18147;51.952;6.146;2023-01-24T08:24:04;103867.44;;;2.27;100.00
31538;BME280;18147;51.952;6.146;2023-01-24T08:26:29;103877.81;;;2.21;100.00
31538;BME280;18147;51.952;6.146;2023-01-24T08:28:55;103881.03;;;2.06;100.00
31538;BME280;18147;51.952;6.146;2023-01-24T08:31:20;103879.44;;;2.14;100.00
31538;BME280;18147;51.952;6.146;2023-01-24T08:33:46;103876.72;;;2.10;100.00
31538;BME280;18147;51.952;6.146;2023-01-24T08:36:11;103875.28;;;2.25;100.00
31538;BME280;18147;51.952;6.146;2023-01-24T08:38:37;103877.59;;;2.10;100.00
31538;BME280;18147;51.952;6.146;2023-01-24T08:41:03;103887.34;;;2.16;100.00
31538;BME280;18147;51.952;6.146;2023-01-24T08:43:29;103878.66;;;2.18;100.00
31538;BME280;18147;51.952;6.146;2023-01-24T08:45:54;103881.72;;;1.97;100.00
31538;BME280;18147;51.952;6.146;2023-01-24T08:48:20;103883.84;;;2.15;100.00
31538;BME280;18147;51.952;6.146;2023-01-24T08:50:46;103892.31;;;2.00;100.00
31538;BME280;18147;51.952;6.146;2023-01-24T08:53:11;103886.88;;;1.93;100.00
31538;BME280;18147;51.952;6.146;2023-01-24T08:55:37;103885.66;;;2.18;100.00
31538;BME280;18147;51.952;6.146;2023-01-24T08:58:11;103898.16;;;2.28;100.00
31538;BME280;18147;51.952;6.146;2023-01-24T09:00:36;103909.56;;;2.28;100.00
31538;BME280;18147;51.952;6.146;2023-01-24T09:03:02;103894.59;;;2.26;100.00
31538;BME280;18147;51.952;6.146;2023-01-24T09:05:29;103903.56;;;2.36;100.00
31538;BME280;18147;51.952;6.146;2023-01-24T09:07:55;103902.41;;;2.21;100.00
31538;BME280;18147;51.952;6.146;2023-01-24T09:10:20;103898.03;;;2.22;100.00
31538;BME280;18147;51.952;6.146;2023-01-24T09:12:45;103905.19;;;2.27;100.00
31538;BME280;18147;51.952;6.146;2023-01-24T09:15:11;103904.69;;;2.04;100.00
31538;BME280;18147;51.952;6.146;2023-01-24T09:17:37;103899.59;;;2.12;100.00
31538;BME280;18147;51.952;6.146;2023-01-24T09:20:09;103902.28;;;2.15;100.00
31538;BME280;18147;51.952;6.146;2023-01-24T09:22:34;103913.00;;;2.24;100.00
31538;BME280;18147;51.952;6.146;2023-01-24T09:25:00;103920.09;;;2.27;100.00
31538;BME280;18147;51.952;6.146;2023-01-24T09:27:25;103914.34;;;2.05;100.00
31538;BME280;18147;51.952;6.146;2023-01-24T09:29:50;103905.75;;;2.13;100.00
31538;BME280;18147;51.952;6.146;2023-01-24T09:32:16;103911.88;;;2.13;100.00
31538;BME280;18147;51.952;6.146;2023-01-24T09:34:42;103918.13;;;2.18;100.00
31538;BME280;18147;51.952;6.146;2023-01-24T09:37:15;103911.56;;;2.40;100.00
31538;BME280;18147;51.952;6.146;2023-01-24T09:39:41;103912.50;;;2.44;100.00
31538;BME280;18147;51.952;6.146;2023-01-24T09:42:48;103914.84;;;2.28;100.00
31538;BME280;18147;51.952;6.146;2023-01-24T09:50:04;103909.69;;;2.34;100.00
31538;BME280;18147;51.952;6.146;2023-01-24T09:52:39;103918.53;;;2.37;100.00
31538;BME280;18147;51.952;6.146;2023-01-24T09:55:14;103916.91;;;2.45;100.00
31538;BME280;18147;51.952;6.146;2023-01-24T09:58:13;103921.75;;;2.23;100.00
31538;BME280;18147;51.952;6.146;2023-01-24T10:00:44;103927.44;;;2.43;100.00
31538;BME280;18147;51.952;6.146;2023-01-24T10:03:21;103925.00;;;2.54;100.00
31538;BME280;18147;51.952;6.146;2023-01-24T10:05:59;103930.38;;;2.58;100.00
31538;BME280;18147;51.952;6.146;2023-01-24T10:08:48;103928.44;;;2.50;100.00
31538;BME280;18147;51.952;6.146;2023-01-24T10:11:36;103923.06;;;2.44;100.00
31538;BME280;18147;51.952;6.146;2023-01-24T10:14:52;103930.34;;;2.57;100.00
31538;BME280;18147;51.952;6.146;2023-01-24T10:17:43;103925.00;;;2.54;100.00
31538;BME280;18147;51.952;6.146;2023-01-24T10:20:49;103920.59;;;2.53;100.00
31538;BME280;18147;51.952;6.146;2023-01-24T10:23:27;103923.97;;;2.46;100.00
31538;BME280;18147;51.952;6.146;2023-01-24T10:26:00;103931.78;;;2.41;100.00
31538;BME280;18147;51.952;6.146;2023-01-24T10:28:32;103919.81;;;2.57;100.00
31538;BME280;18147;51.952;6.146;2023-01-24T10:31:05;103929.84;;;2.32;100.00
31538;BME280;18147;51.952;6.146;2023-01-24T10:33:37;103928.00;;;2.28;100.00
31538;BME280;18147;51.952;6.146;2023-01-24T10:38:49;103922.31;;;2.51;100.00
31538;BME280;18147;51.952;6.146;2023-01-24T10:41:22;103911.06;;;2.59;100.00
31538;BME280;18147;51.952;6.146;2023-01-24T10:44:12;103923.81;;;2.37;100.00
31538;BME280;18147;51.952;6.146;2023-01-24T10:49:30;103911.25;;;2.69;100.00
31538;BME280;18147;51.952;6.146;2023-01-24T10:52:16;103914.25;;;2.89;100.00
31538;BME280;18147;51.952;6.146;2023-01-24T10:54:49;103911.63;;;2.89;100.00
31538;BME280;18147;51.952;6.146;2023-01-24T10:59:47;103904.13;;;2.65;100.00
31538;BME280;18147;51.952;6.146;2023-01-24T11:02:24;103908.78;;;2.76;100.00
31538;BME280;18147;51.952;6.146;2023-01-24T11:05:12;103896.84;;;2.97;100.00
31538;BME280;18147;51.952;6.146;2023-01-24T11:07:37;103890.69;;;2.98;100.00
31538;BME280;18147;51.952;6.146;2023-01-24T11:10:34;103905.00;;;2.64;100.00
31538;BME280;18147;51.952;6.146;2023-01-24T11:13:01;103896.53;;;2.80;100.00
31538;BME280;18147;51.952;6.146;2023-01-24T11:15:30;103889.31;;;2.70;100.00
31538;BME280;18147;51.952;6.146;2023-01-24T11:18:14;103891.69;;;3.04;100.00
31538;BME280;18147;51.952;6.146;2023-01-24T11:20:41;103880.16;;;2.98;100.00
31538;BME280;18147;51.952;6.146;2023-01-24T11:23:17;103881.94;;;3.00;100.00
31538;BME280;18147;51.952;6.146;2023-01-24T11:25:56;103873.09;;;3.51;100.00
31538;BME280;18147;51.952;6.146;2023-01-24T11:28:34;103876.28;;;3.30;100.00
31538;BME280;18147;51.952;6.146;2023-01-24T11:31:02;103878.19;;;3.39;100.00
31538;BME280;18147;51.952;6.146;2023-01-24T11:39:08;103861.31;;;3.26;100.00
31538;BME280;18147;51.952;6.146;2023-01-24T11:41:46;103853.44;;;3.29;100.00
31538;BME280;18147;51.952;6.146;2023-01-24T11:47:22;103857.56;;;3.12;100.00
31538;BME280;18147;51.952;6.146;2023-01-24T11:50:02;103857.06;;;2.83;100.00
31538;BME280;18147;51.952;6.146;2023-01-24T11:53:09;103859.78;;;2.89;100.00
31538;BME280;18147;51.952;6.146;2023-01-24T12:01:32;103847.00;;;3.12;100.00
31538;BME280;18147;51.952;6.146;2023-01-24T12:06:40;103832.78;;;3.02;100.00
31538;BME280;18147;51.952;6.146;2023-01-24T12:09:19;103824.50;;;2.81;100.00
31538;BME280;18147;51.952;6.146;2023-01-24T12:17:16;103822.81;;;3.41;100.00
31538;BME280;18147;51.952;6.146;2023-01-24T12:22:24;103815.69;;;3.32;100.00
31538;BME280;18147;51.952;6.146;2023-01-24T12:25:44;103821.97;;;3.42;100.00
31538;BME280;18147;51.952;6.146;2023-01-24T12:27:55;103825.72;;;3.59;100.00
31538;BME280;18147;51.952;6.146;2023-01-24T12:32:57;103815.97;;;3.52;100.00
31538;BME280;18147;51.952;6.146;2023-01-24T12:38:18;103806.81;;;3.28;99.92
31538;BME280;18147;51.952;6.146;2023-01-24T12:45:59;103813.56;;;3.09;100.00
31538;BME280;18147;51.952;6.146;2023-01-24T12:48:58;103803.19;;;3.20;100.00
31538;BME280;18147;51.952;6.146;2023-01-24T12:54:14;103804.38;;;2.86;100.00
31538;BME280;18147;51.952;6.146;2023-01-24T12:56:50;103806.06;;;2.81;100.00
31538;BME280;18147;51.952;6.146;2023-01-24T12:59:23;103812.34;;;2.88;100.00
31538;BME280;18147;51.952;6.146;2023-01-24T13:12:31;103788.38;;;3.30;100.00
31538;BME280;18147;51.952;6.146;2023-01-24T13:15:10;103796.63;;;2.94;100.00
31538;BME280;18147;51.952;6.146;2023-01-24T13:34:20;103792.63;;;2.66;100.00
31538;BME280;18147;51.952;6.146;2023-01-24T13:36:49;103787.69;;;2.84;100.00
31538;BME280;18147;51.952;6.146;2023-01-24T13:39:36;103789.41;;;2.82;100.00
31538;BME280;18147;51.952;6.146;2023-01-24T13:42:31;103788.25;;;3.21;100.00
31538;BME280;18147;51.952;6.146;2023-01-24T13:44:57;103779.78;;;2.85;100.00
31538;BME280;18147;51.952;6.146;2023-01-24T13:47:25;103778.72;;;2.71;100.00
31538;BME280;18147;51.952;6.146;2023-01-24T13:54:58;103782.94;;;2.63;100.00
31538;BME280;18147;51.952;6.146;2023-01-24T13:57:28;103779.06;;;2.41;100.00
31538;BME280;18147;51.952;6.146;2023-01-24T14:02:42;103788.81;;;2.47;100.00
31538;BME280;18147;51.952;6.146;2023-01-24T14:10:51;103776.53;;;2.47;100.00
31538;BME280;18147;51.952;6.146;2023-01-24T14:18:58;103779.69;;;2.29;100.00
31538;BME280;18147;51.952;6.146;2023-01-24T14:21:27;103783.28;;;2.31;100.00
31538;BME280;18147;51.952;6.146;2023-01-24T14:23:58;103786.53;;;2.18;100.00
31538;BME280;18147;51.952;6.146;2023-01-24T14:26:27;103786.63;;;2.24;100.00
31538;BME280;18147;51.952;6.146;2023-01-24T14:28:59;103786.59;;;2.21;100.00
31538;BME280;18147;51.952;6.146;2023-01-24T14:31:35;103776.38;;;2.40;100.00
31538;BME280;18147;51.952;6.146;2023-01-24T14:34:29;103778.19;;;2.42;100.00
31538;BME280;18147;51.952;6.146;2023-01-24T14:37:09;103794.34;;;2.15;100.00
31538;BME280;18147;51.952;6.146;2023-01-24T14:39:35;103784.88;;;2.25;100.00
31538;BME280;18147;51.952;6.146;2023-01-24T14:42:02;103784.94;;;2.26;100.00
31538;BME280;18147;51.952;6.146;2023-01-24T14:46:59;103792.44;;;2.55;100.00
31538;BME280;18147;51.952;6.146;2023-01-24T14:49:27;103791.31;;;2.41;100.00
31538;BME280;18147;51.952;6.146;2023-01-24T14:51:53;103791.56;;;2.54;100.00
31538;BME280;18147;51.952;6.146;2023-01-24T14:54:21;103788.13;;;2.58;100.00
31538;BME280;18147;51.952;6.146;2023-01-24T14:56:47;103793.00;;;2.87;100.00
31538;BME280;18147;51.952;6.146;2023-01-24T14:59:13;103798.03;;;2.72;100.00